sensor_id;sensor_type;location;lat;lon;timestamp;P1;durP1;ratioP1;P2;durP2;ratioP2
39362;SDS011;25088;43.238;23.110;2023-02-22T00:00:36;0.10;;;0.10;;
39362;SDS011;25088;43.238;23.110;2023-02-22T00:03:18;0.10;;;0.10;;
39362;SDS011;25088;43.238;23.110;2023-02-22T00:05:51;0.10;;;0.10;;
39362;SDS011;25088;43.238;23.110;2023-02-22T00:08:23;0.20;;;0.20;;
39362;SDS011;25088;43.238;23.110;2023-02-22T00:13:20;0.13;;;0.13;;
39362;SDS011;25088;43.238;23.110;2023-02-22T00:15:47;0.20;;;0.20;;
39362;SDS011;25088;43.238;23.110;2023-02-22T00:18:14;0.20;;;0.20;;
39362;SDS011;25088;43.238;23.110;2023-02-22T00:20:41;0.20;;;0.20;;
39362;SDS011;25088;43.238;23.110;2023-02-22T00:23:07;0.20;;;0.20;;
39362;SDS011;25088;43.238;23.110;2023-02-22T00:25:37;0.20;;;0.20;;
39362;SDS011;25088;43.238;23.110;2023-02-22T00:28:03;0.20;;;0.20;;
39362;SDS011;25088;43.238;23.110;2023-02-22T00:30:29;0.20;;;0.20;;
39362;SDS011;25088;43.238;23.110;2023-02-22T00:32:56;0.20;;;0.20;;
39362;SDS011;25088;43.238;23.110;2023-02-22T00:35:23;0.20;;;0.20;;
39362;SDS011;25088;43.238;23.110;2023-02-22T00:37:50;0.20;;;0.20;;
39362;SDS011;25088;43.238;23.110;2023-02-22T00:40:18;0.20;;;0.20;;
39362;SDS011;25088;43.238;23.110;2023-02-22T00:42:45;0.20;;;0.20;;
39362;SDS011;25088;43.238;23.110;2023-02-22T00:45:12;0.20;;;0.20;;
39362;SDS011;25088;43.238;23.110;2023-02-22T00:47:39;0.20;;;0.20;;
39362;SDS011;25088;43.238;23.110;2023-02-22T00:50:05;0.20;;;0.20;;
39362;SDS011;25088;43.238;23.110;2023-02-22T00:52:31;0.20;;;0.20;;
39362;SDS011;25088;43.238;23.110;2023-02-22T00:54:56;0.20;;;0.20;;
39362;SDS011;25088;43.238;23.110;2023-02-22T00:57:22;0.20;;;0.20;;
39362;SDS011;25088;43.238;23.110;2023-02-22T00:59:48;0.20;;;0.20;;
39362;SDS011;25088;43.238;23.110;2023-02-22T01:02:14;0.20;;;0.20;;
39362;SDS011;25088;43.238;23.110;2023-02-22T01:04:40;0.20;;;0.20;;
39362;SDS011;25088;43.238;23.110;2023-02-22T01:07:05;0.20;;;0.20;;
39362;SDS011;25088;43.238;23.110;2023-02-22T01:09:31;0.20;;;0.20;;
39362;SDS011;25088;43.238;23.110;2023-02-22T01:11:57;0.20;;;0.20;;
39362;SDS011;25088;43.238;23.110;2023-02-22T01:14:23;0.20;;;0.20;;
39362;SDS011;25088;43.238;23.110;2023-02-22T01:16:51;0.20;;;0.20;;
39362;SDS011;25088;43.238;23.110;2023-02-22T01:19:20;0.20;;;0.20;;
39362;SDS011;25088;43.238;23.110;2023-02-22T01:21:47;0.20;;;0.20;;
39362;SDS011;25088;43.238;23.110;2023-02-22T01:24:14;0.20;;;0.20;;
39362;SDS011;25088;43.238;23.110;2023-02-22T01:26:47;0.20;;;0.20;;
39362;SDS011;25088;43.238;23.110;2023-02-22T01:29:14;0.20;;;0.20;;
39362;SDS011;25088;43.238;23.110;2023-02-22T01:31:41;0.20;;;0.20;;
39362;SDS011;25088;43.238;23.110;2023-02-22T01:34:10;0.30;;;0.30;;
39362;SDS011;25088;43.238;23.110;2023-02-22T01:36:37;0.20;;;0.20;;
39362;SDS011;25088;43.238;23.110;2023-02-22T01:39:04;0.22;;;0.22;;
39362;SDS011;25088;43.238;23.110;2023-02-22T01:41:30;0.30;;;0.30;;
39362;SDS011;25088;43.238;23.110;2023-02-22T01:43:56;0.22;;;0.22;;
39362;SDS011;25088;43.238;23.110;2023-02-22T01:46:23;0.20;;;0.20;;
39362;SDS011;25088;43.238;23.110;2023-02-22T01:48:55;0.20;;;0.20;;
39362;SDS011;25088;43.238;23.110;2023-02-22T01:51:26;0.20;;;0.20;;
39362;SDS011;25088;43.238;23.110;2023-02-22T01:54:01;0.30;;;0.30;;
39362;SDS011;25088;43.238;23.110;2023-02-22T01:56:31;0.30;;;0.30;;
39362;SDS011;25088;43.238;23.110;2023-02-22T01:59:01;0.20;;;0.20;;
39362;SDS011;25088;43.238;23.110;2023-02-22T02:01:30;0.20;;;0.20;;
39362;SDS011;25088;43.238;23.110;2023-02-22T02:03:58;0.20;;;0.20;;
39362;SDS011;25088;43.238;23.110;2023-02-22T02:06:26;0.30;;;0.30;;
39362;SDS011;25088;43.238;23.110;2023-02-22T02:11:54;0.30;;;0.30;;
39362;SDS011;25088;43.238;23.110;2023-02-22T02:14:24;0.20;;;0.20;;
39362;SDS011;25088;43.238;23.110;2023-02-22T02:16:50;0.20;;;0.20;;
39362;SDS011;25088;43.238;23.110;2023-02-22T02:19:29;0.20;;;0.20;;
39362;SDS011;25088;43.238;23.110;2023-02-22T02:30:40;0.30;;;0.30;;
39362;SDS011;25088;43.238;23.110;2023-02-22T02:36:00;0.20;;;0.20;;
39362;SDS011;25088;43.238;23.110;2023-02-22T02:38:35;0.30;;;0.30;;
39362;SDS011;25088;43.238;23.110;2023-02-22T02:44:04;0.30;;;0.30;;
39362;SDS011;25088;43.238;23.110;2023-02-22T02:49:14;0.20;;;0.20;;
39362;SDS011;25088;43.238;23.110;2023-02-22T02:51:47;0.20;;;0.20;;
39362;SDS011;25088;43.238;23.110;2023-02-22T02:54:17;0.20;;;0.20;;
39362;SDS011;25088;43.238;23.110;2023-02-22T02:56:44;0.20;;;0.20;;
39362;SDS011;25088;43.238;23.110;2023-02-22T03:07:45;0.22;;;0.22;;
39362;SDS011;25088;43.238;23.110;2023-02-22T03:15:43;0.20;;;0.20;;
39362;SDS011;25088;43.238;23.110;2023-02-22T03:18:17;0.20;;;0.20;;
39362;SDS011;25088;43.238;23.110;2023-02-22T03:26:13;0.20;;;0.20;;
39362;SDS011;25088;43.238;23.110;2023-02-22T03:28:48;0.20;;;0.20;;
39362;SDS011;25088;43.238;23.110;2023-02-22T03:31:19;0.20;;;0.20;;
39362;SDS011;25088;43.238;23.110;2023-02-22T03:33:51;0.20;;;0.20;;
39362;SDS011;25088;43.238;23.110;2023-02-22T03:36:30;0.20;;;0.20;;
39362;SDS011;25088;43.238;23.110;2023-02-22T03:38:59;0.20;;;0.20;;
39362;SDS011;25088;43.238;23.110;2023-02-22T03:41:28;0.20;;;0.20;;
39362;SDS011;25088;43.238;23.110;2023-02-22T03:44:01;0.20;;;0.20;;
39362;SDS011;25088;43.238;23.110;2023-02-22T03:51:49;0.20;;;0.20;;
39362;SDS011;25088;43.238;23.110;2023-02-22T03:54:15;0.20;;;0.20;;
39362;SDS011;25088;43.238;23.110;2023-02-22T03:56:44;0.20;;;0.20;;
39362;SDS011;25088;43.238;23.110;2023-02-22T03:59:21;0.20;;;0.20;;
39362;SDS011;25088;43.238;23.110;2023-02-22T04:01:51;0.20;;;0.20;;
39362;SDS011;25088;43.238;23.110;2023-02-22T04:04:18;0.20;;;0.20;;
39362;SDS011;25088;43.238;23.110;2023-02-22T04:06:45;0.20;;;0.20;;
39362;SDS011;25088;43.238;23.110;2023-02-22T04:09:12;0.20;;;0.20;;
39362;SDS011;25088;43.238;23.110;2023-02-22T04:11:38;0.20;;;0.20;;
39362;SDS011;25088;43.238;23.110;2023-02-22T04:14:03;0.20;;;0.20;;
39362;SDS011;25088;43.238;23.110;2023-02-22T04:16:29;0.20;;;0.20;;
39362;SDS011;25088;43.238;23.110;2023-02-22T04:18:55;0.20;;;0.20;;
39362;SDS011;25088;43.238;23.110;2023-02-22T04:21:20;0.20;;;0.20;;
39362;SDS011;25088;43.238;23.110;2023-02-22T04:23:46;0.20;;;0.20;;
39362;SDS011;25088;43.238;23.110;2023-02-22T04:26:11;0.20;;;0.20;;
39362;SDS011;25088;43.238;23.110;2023-02-22T04:28:37;0.20;;;0.20;;
39362;SDS011;25088;43.238;23.110;2023-02-22T04:31:02;0.20;;;0.20;;
39362;SDS011;25088;43.238;23.110;2023-02-22T04:33:28;0.20;;;0.20;;
39362;SDS011;25088;43.238;23.110;2023-02-22T04:35:53;0.20;;;0.20;;
39362;SDS011;25088;43.238;23.110;2023-02-22T04:38:21;0.20;;;0.20;;
39362;SDS011;25088;43.238;23.110;2023-02-22T04:40:49;0.20;;;0.20;;
39362;SDS011;25088;43.238;23.110;2023-02-22T04:43:15;0.20;;;0.20;;
39362;SDS011;25088;43.238;23.110;2023-02-22T04:45:41;0.20;;;0.20;;
39362;SDS011;25088;43.238;23.110;2023-02-22T04:48:06;0.20;;;0.20;;
39362;SDS011;25088;43.238;23.110;2023-02-22T04:50:32;0.20;;;0.20;;
39362;SDS011;25088;43.238;23.110;2023-02-22T04:52:57;0.20;;;0.20;;
39362;SDS011;25088;43.238;23.110;2023-02-22T04:55:23;0.20;;;0.20;;
39362;SDS011;25088;43.238;23.110;2023-02-22T04:57:48;0.20;;;0.20;;
39362;SDS011;25088;43.238;23.110;2023-02-22T05:00:15;0.20;;;0.20;;
39362;SDS011;25088;43.238;23.110;2023-02-22T05:02:42;0.20;;;0.20;;
39362;SDS011;25088;43.238;23.110;2023-02-22T05:05:07;0.20;;;0.20;;
39362;SDS011;25088;43.238;23.110;2023-02-22T05:07:33;0.20;;;0.20;;
39362;SDS011;25088;43.238;23.110;2023-02-22T05:09:58;0.20;;;0.20;;
39362;SDS011;25088;43.238;23.110;2023-02-22T05:12:26;0.28;;;0.28;;
39362;SDS011;25088;43.238;23.110;2023-02-22T05:14:52;0.20;;;0.20;;
39362;SDS011;25088;43.238;23.110;2023-02-22T05:17:18;0.20;;;0.20;;
39362;SDS011;25088;43.238;23.110;2023-02-22T05:19:43;0.25;;;0.25;;
39362;SDS011;25088;43.238;23.110;2023-02-22T05:22:09;0.20;;;0.20;;
39362;SDS011;25088;43.238;23.110;2023-02-22T05:24:34;0.30;;;0.30;;
39362;SDS011;25088;43.238;23.110;2023-02-22T05:26:59;0.30;;;0.30;;
39362;SDS011;25088;43.238;23.110;2023-02-22T05:29:25;0.20;;;0.20;;
39362;SDS011;25088;43.238;23.110;2023-02-22T05:31:50;0.30;;;0.30;;
39362;SDS011;25088;43.238;23.110;2023-02-22T05:34:16;0.20;;;0.20;;
39362;SDS011;25088;43.238;23.110;2023-02-22T05:36:41;0.20;;;0.20;;
39362;SDS011;25088;43.238;23.110;2023-02-22T05:39:07;0.30;;;0.30;;
39362;SDS011;25088;43.238;23.110;2023-02-22T05:41:33;0.20;;;0.20;;
39362;SDS011;25088;43.238;23.110;2023-02-22T05:43:58;0.20;;;0.20;;
39362;SDS011;25088;43.238;23.110;2023-02-22T05:46:24;0.20;;;0.20;;
39362;SDS011;25088;43.238;23.110;2023-02-22T05:48:49;0.20;;;0.20;;
39362;SDS011;25088;43.238;23.110;2023-02-22T05:51:15;0.30;;;0.30;;
39362;SDS011;25088;43.238;23.110;2023-02-22T05:53:40;0.20;;;0.20;;
39362;SDS011;25088;43.238;23.110;2023-02-22T05:56:06;0.22;;;0.22;;
39362;SDS011;25088;43.238;23.110;2023-02-22T05:58:32;0.20;;;0.20;;
39362;SDS011;25088;43.238;23.110;2023-02-22T06:00:57;0.20;;;0.20;;
39362;SDS011;25088;43.238;23.110;2023-02-22T06:03:23;0.20;;;0.20;;
39362;SDS011;25088;43.238;23.110;2023-02-22T06:05:49;0.20;;;0.20;;
39362;SDS011;25088;43.238;23.110;2023-02-22T06:08:14;0.20;;;0.20;;
39362;SDS011;25088;43.238;23.110;2023-02-22T06:10:42;0.20;;;0.20;;
39362;SDS011;25088;43.238;23.110;2023-02-22T06:13:08;0.10;;;0.10;;
39362;SDS011;25088;43.238;23.110;2023-02-22T06:15:33;0.10;;;0.10;;
39362;SDS011;25088;43.238;23.110;2023-02-22T06:17:59;0.10;;;0.10;;
39362;SDS011;25088;43.238;23.110;2023-02-22T06:20:26;0.10;;;0.10;;
39362;SDS011;25088;43.238;23.110;2023-02-22T06:22:53;0.10;;;0.10;;
39362;SDS011;25088;43.238;23.110;2023-02-22T06:25:22;0.10;;;0.10;;
39362;SDS011;25088;43.238;23.110;2023-02-22T06:27:50;0.10;;;0.10;;
39362;SDS011;25088;43.238;23.110;2023-02-22T06:30:16;0.10;;;0.10;;
39362;SDS011;25088;43.238;23.110;2023-02-22T06:32:43;0.10;;;0.10;;
39362;SDS011;25088;43.238;23.110;2023-02-22T06:35:09;0.10;;;0.10;;
39362;SDS011;25088;43.238;23.110;2023-02-22T06:37:34;0.00;;;0.00;;
39362;SDS011;25088;43.238;23.110;2023-02-22T06:40:01;0.00;;;0.00;;
39362;SDS011;25088;43.238;23.110;2023-02-22T06:42:27;0.10;;;0.10;;
39362;SDS011;25088;43.238;23.110;2023-02-22T06:44:52;0.10;;;0.10;;
39362;SDS011;25088;43.238;23.110;2023-02-22T06:47:18;0.00;;;0.00;;
39362;SDS011;25088;43.238;23.110;2023-02-22T06:49:43;0.10;;;0.10;;
39362;SDS011;25088;43.238;23.110;2023-02-22T06:52:09;0.00;;;0.00;;
39362;SDS011;25088;43.238;23.110;2023-02-22T06:54:35;0.10;;;0.10;;
39362;SDS011;25088;43.238;23.110;2023-02-22T06:57:01;0.00;;;0.00;;
39362;SDS011;25088;43.238;23.110;2023-02-22T06:59:26;0.00;;;0.00;;
39362;SDS011;25088;43.238;23.110;2023-02-22T07:01:52;0.00;;;0.00;;
39362;SDS011;25088;43.238;23.110;2023-02-22T07:04:18;0.00;;;0.00;;
39362;SDS011;25088;43.238;23.110;2023-02-22T07:06:47;0.00;;;0.00;;
39362;SDS011;25088;43.238;23.110;2023-02-22T07:09:14;0.00;;;0.00;;
39362;SDS011;25088;43.238;23.110;2023-02-22T07:11:40;0.00;;;0.00;;
39362;SDS011;25088;43.238;23.110;2023-02-22T07:14:06;0.00;;;0.00;;
39362;SDS011;25088;43.238;23.110;2023-02-22T07:16:31;0.00;;;0.00;;
39362;SDS011;25088;43.238;23.110;2023-02-22T07:18:58;0.00;;;0.00;;
39362;SDS011;25088;43.238;23.110;2023-02-22T07:21:24;0.00;;;0.00;;
39362;SDS011;25088;43.238;23.110;2023-02-22T07:23:51;0.00;;;0.00;;
39362;SDS011;25088;43.238;23.110;2023-02-22T07:26:17;0.00;;;0.00;;
39362;SDS011;25088;43.238;23.110;2023-02-22T07:28:43;0.00;;;0.00;;
39362;SDS011;25088;43.238;23.110;2023-02-22T07:31:09;0.00;;;0.00;;
39362;SDS011;25088;43.238;23.110;2023-02-22T07:33:35;0.00;;;0.00;;
39362;SDS011;25088;43.238;23.110;2023-02-22T07:36:00;0.00;;;0.00;;
39362;SDS011;25088;43.238;23.110;2023-02-22T07:38:25;0.00;;;0.00;;
39362;SDS011;25088;43.238;23.110;2023-02-22T07:40:51;0.00;;;0.00;;
39362;SDS011;25088;43.238;23.110;2023-02-22T07:45:47;0.00;;;0.00;;
39362;SDS011;25088;43.238;23.110;2023-02-22T07:48:14;0.00;;;0.00;;
39362;SDS011;25088;43.238;23.110;2023-02-22T07:50:40;0.00;;;0.00;;
39362;SDS011;25088;43.238;23.110;2023-02-22T07:53:09;0.00;;;0.00;;
39362;SDS011;25088;43.238;23.110;2023-02-22T07:55:40;0.00;;;0.00;;
39362;SDS011;25088;43.238;23.110;2023-02-22T07:58:06;0.00;;;0.00;;
39362;SDS011;25088;43.238;23.110;2023-02-22T08:00:34;0.00;;;0.00;;
39362;SDS011;25088;43.238;23.110;2023-02-22T08:03:02;0.00;;;0.00;;
39362;SDS011;25088;43.238;23.110;2023-02-22T08:05:29;0.00;;;0.00;;
39362;SDS011;25088;43.238;23.110;2023-02-22T08:07:56;0.00;;;0.00;;
39362;SDS011;25088;43.238;23.110;2023-02-22T08:10:22;0.00;;;0.00;;
39362;SDS011;25088;43.238;23.110;2023-02-22T08:12:49;0.00;;;0.00;;
39362;SDS011;25088;43.238;23.110;2023-02-22T08:15:17;0.00;;;0.00;;
39362;SDS011;25088;43.238;23.110;2023-02-22T08:17:48;0.00;;;0.00;;
39362;SDS011;25088;43.238;23.110;2023-02-22T08:20:14;0.00;;;0.00;;
39362;SDS011;25088;43.238;23.110;2023-02-22T08:22:43;0.00;;;0.00;;
39362;SDS011;25088;43.238;23.110;2023-02-22T08:25:10;0.00;;;0.00;;
39362;SDS011;25088;43.238;23.110;2023-02-22T08:27:36;0.00;;;0.00;;
39362;SDS011;25088;43.238;23.110;2023-02-22T08:30:02;0.00;;;0.00;;
39362;SDS011;25088;43.238;23.110;2023-02-22T08:32:29;0.00;;;0.00;;
39362;SDS011;25088;43.238;23.110;2023-02-22T08:34:54;0.00;;;0.00;;
39362;SDS011;25088;43.238;23.110;2023-02-22T08:37:19;0.00;;;0.00;;
39362;SDS011;25088;43.238;23.110;2023-02-22T08:39:45;0.00;;;0.00;;
39362;SDS011;25088;43.238;23.110;2023-02-22T08:42:10;0.00;;;0.00;;
39362;SDS011;25088;43.238;23.110;2023-02-22T08:44:36;0.00;;;0.00;;
39362;SDS011;25088;43.238;23.110;2023-02-22T08:47:03;0.00;;;0.00;;
39362;SDS011;25088;43.238;23.110;2023-02-22T08:49:28;0.00;;;0.00;;
39362;SDS011;25088;43.238;23.110;2023-02-22T08:51:54;0.00;;;0.00;;
39362;SDS011;25088;43.238;23.110;2023-02-22T08:54:20;0.00;;;0.00;;
39362;SDS011;25088;43.238;23.110;2023-02-22T08:56:46;0.00;;;0.00;;
39362;SDS011;25088;43.238;23.110;2023-02-22T08:59:12;0.00;;;0.00;;
39362;SDS011;25088;43.238;23.110;2023-02-22T09:01:38;0.00;;;0.00;;
39362;SDS011;25088;43.238;23.110;2023-02-22T09:04:03;0.00;;;0.00;;
39362;SDS011;25088;43.238;23.110;2023-02-22T09:06:29;0.00;;;0.00;;
39362;SDS011;25088;43.238;23.110;2023-02-22T09:08:54;0.00;;;0.00;;
39362;SDS011;25088;43.238;23.110;2023-02-22T09:11:20;0.00;;;0.00;;
39362;SDS011;25088;43.238;23.110;2023-02-22T09:13:46;0.00;;;0.00;;
39362;SDS011;25088;43.238;23.110;2023-02-22T09:16:11;0.00;;;0.00;;
39362;SDS011;25088;43.238;23.110;2023-02-22T09:18:37;0.00;;;0.00;;
39362;SDS011;25088;43.238;23.110;2023-02-22T09:21:03;0.00;;;0.00;;
39362;SDS011;25088;43.238;23.110;2023-02-22T09:23:29;0.00;;;0.00;;
39362;SDS011;25088;43.238;23.110;2023-02-22T09:25:54;0.00;;;0.00;;
39362;SDS011;25088;43.238;23.110;2023-02-22T09:28:20;0.00;;;0.00;;
39362;SDS011;25088;43.238;23.110;2023-02-22T09:30:46;0.00;;;0.00;;
39362;SDS011;25088;43.238;23.110;2023-02-22T09:33:13;0.00;;;0.00;;
39362;SDS011;25088;43.238;23.110;2023-02-22T09:35:41;0.00;;;0.00;;
39362;SDS011;25088;43.238;23.110;2023-02-22T09:38:10;0.00;;;0.00;;
39362;SDS011;25088;43.238;23.110;2023-02-22T09:40:42;0.00;;;0.00;;
39362;SDS011;25088;43.238;23.110;2023-02-22T09:48:23;0.00;;;0.00;;
39362;SDS011;25088;43.238;23.110;2023-02-22T09:50:50;0.00;;;0.00;;
39362;SDS011;25088;43.238;23.110;2023-02-22T09:53:21;0.00;;;0.00;;
39362;SDS011;25088;43.238;23.110;2023-02-22T09:55:54;0.00;;;0.00;;
39362;SDS011;25088;43.238;23.110;2023-02-22T09:58:25;0.00;;;0.00;;
39362;SDS011;25088;43.238;23.110;2023-02-22T10:01:02;0.00;;;0.00;;
39362;SDS011;25088;43.238;23.110;2023-02-22T10:06:34;0.00;;;0.00;;
39362;SDS011;25088;43.238;23.110;2023-02-22T10:09:03;0.00;;;0.00;;
39362;SDS011;25088;43.238;23.110;2023-02-22T10:20:06;0.00;;;0.00;;
39362;SDS011;25088;43.238;23.110;2023-02-22T10:27:40;0.00;;;0.00;;
39362;SDS011;25088;43.238;23.110;2023-02-22T10:35:45;0.00;;;0.00;;
39362;SDS011;25088;43.238;23.110;2023-02-22T10:38:31;0.00;;;0.00;;
39362;SDS011;25088;43.238;23.110;2023-02-22T10:40:59;0.00;;;0.00;;
39362;SDS011;25088;43.238;23.110;2023-02-22T10:43:32;0.00;;;0.00;;
39362;SDS011;25088;43.238;23.110;2023-02-22T10:46:06;0.00;;;0.00;;
39362;SDS011;25088;43.238;23.110;2023-02-22T10:48:34;0.00;;;0.00;;
39362;SDS011;25088;43.238;23.110;2023-02-22T10:51:03;0.00;;;0.00;;
39362;SDS011;25088;43.238;23.110;2023-02-22T10:53:32;0.00;;;0.00;;
39362;SDS011;25088;43.238;23.110;2023-02-22T10:56:17;0.00;;;0.00;;
39362;SDS011;25088;43.238;23.110;2023-02-22T11:01:47;0.00;;;0.00;;
39362;SDS011;25088;43.238;23.110;2023-02-22T11:04:12;0.00;;;0.00;;
39362;SDS011;25088;43.238;23.110;2023-02-22T11:06:41;0.00;;;0.00;;
39362;SDS011;25088;43.238;23.110;2023-02-22T11:09:13;0.00;;;0.00;;
39362;SDS011;25088;43.238;23.110;2023-02-22T11:11:48;0.00;;;0.00;;
39362;SDS011;25088;43.238;23.110;2023-02-22T11:14:31;0.00;;;0.00;;
39362;SDS011;25088;43.238;23.110;2023-02-22T11:16:57;0.00;;;0.00;;
39362;SDS011;25088;43.238;23.110;2023-02-22T11:19:25;0.00;;;0.00;;
39362;SDS011;25088;43.238;23.110;2023-02-22T11:21:57;0.00;;;0.00;;
39362;SDS011;25088;43.238;23.110;2023-02-22T11:24:35;0.00;;;0.00;;
39362;SDS011;25088;43.238;23.110;2023-02-22T11:27:19;0.00;;;0.00;;
39362;SDS011;25088;43.238;23.110;2023-02-22T11:29:49;0.00;;;0.00;;
39362;SDS011;25088;43.238;23.110;2023-02-22T11:32:18;0.00;;;0.00;;
39362;SDS011;25088;43.238;23.110;2023-02-22T11:34:46;0.00;;;0.00;;
39362;SDS011;25088;43.238;23.110;2023-02-22T11:43:05;0.00;;;0.00;;
39362;SDS011;25088;43.238;23.110;2023-02-22T11:45:39;0.00;;;0.00;;
39362;SDS011;25088;43.238;23.110;2023-02-22T11:48:24;0.00;;;0.00;;
39362;SDS011;25088;43.238;23.110;2023-02-22T11:57:14;0.00;;;0.00;;
39362;SDS011;25088;43.238;23.110;2023-02-22T12:05:26;0.00;;;0.00;;
39362;SDS011;25088;43.238;23.110;2023-02-22T12:13:19;0.00;;;0.00;;
39362;SDS011;25088;43.238;23.110;2023-02-22T12:18:41;0.00;;;0.00;;
39362;SDS011;25088;43.238;23.110;2023-02-22T12:21:29;0.00;;;0.00;;
39362;SDS011;25088;43.238;23.110;2023-02-22T12:24:03;0.00;;;0.00;;
39362;SDS011;25088;43.238;23.110;2023-02-22T12:26:41;0.00;;;0.00;;
39362;SDS011;25088;43.238;23.110;2023-02-22T12:29:27;0.00;;;0.00;;
39362;SDS011;25088;43.238;23.110;2023-02-22T12:32:14;0.00;;;0.00;;
39362;SDS011;25088;43.238;23.110;2023-02-22T12:40:26;0.00;;;0.00;;
39362;SDS011;25088;43.238;23.110;2023-02-22T12:45:37;0.00;;;0.00;;
39362;SDS011;25088;43.238;23.110;2023-02-22T12:50:46;0.00;;;0.00;;
39362;SDS011;25088;43.238;23.110;2023-02-22T12:53:18;0.00;;;0.00;;
39362;SDS011;25088;43.238;23.110;2023-02-22T12:55:50;0.00;;;0.00;;
39362;SDS011;25088;43.238;23.110;2023-02-22T12:58:21;0.00;;;0.00;;
39362;SDS011;25088;43.238;23.110;2023-02-22T13:08:53;0.00;;;0.00;;
39362;SDS011;25088;43.238;23.110;2023-02-22T13:11:42;0.00;;;0.00;;
39362;SDS011;25088;43.238;23.110;2023-02-22T13:22:54;0.00;;;0.00;;
39362;SDS011;25088;43.238;23.110;2023-02-22T13:33:59;0.00;;;0.00;;
39362;SDS011;25088;43.238;23.110;2023-02-22T13:36:38;0.00;;;0.00;;
39362;SDS011;25088;43.238;23.110;2023-02-22T13:42:20;0.00;;;0.00;;
39362;SDS011;25088;43.238;23.110;2023-02-22T13:47:49;0.00;;;0.00;;
39362;SDS011;25088;43.238;23.110;2023-02-22T13:53:40;0.00;;;0.00;;
39362;SDS011;25088;43.238;23.110;2023-02-22T13:56:20;0.00;;;0.00;;
39362;SDS011;25088;43.238;23.110;2023-02-22T13:58:53;0.00;;;0.00;;
39362;SDS011;25088;43.238;23.110;2023-02-22T14:06:51;0.00;;;0.00;;
39362;SDS011;25088;43.238;23.110;2023-02-22T14:17:34;0.00;;;0.00;;
39362;SDS011;25088;43.238;23.110;2023-02-22T14:20:04;0.00;;;0.00;;
39362;SDS011;25088;43.238;23.110;2023-02-22T14:22:47;0.00;;;0.00;;
39362;SDS011;25088;43.238;23.110;2023-02-22T14:27:56;0.00;;;0.00;;
39362;SDS011;25088;43.238;23.110;2023-02-22T14:30:23;0.00;;;0.00;;
39362;SDS011;25088;43.238;23.110;2023-02-22T14:32:51;0.00;;;0.00;;
39362;SDS011;25088;43.238;23.110;2023-02-22T14:35:17;0.00;;;0.00;;
39362;SDS011;25088;43.238;23.110;2023-02-22T14:37:47;0.00;;;0.00;;
39362;SDS011;25088;43.238;23.110;2023-02-22T14:40:29;0.00;;;0.00;;
39362;SDS011;25088;43.238;23.110;2023-02-22T14:43:00;0.00;;;0.00;;
39362;SDS011;25088;43.238;23.110;2023-02-22T14:45:35;0.00;;;0.00;;
39362;SDS011;25088;43.238;23.110;2023-02-22T14:48:26;0.00;;;0.00;;
39362;SDS011;25088;43.238;23.110;2023-02-22T14:51:07;0.00;;;0.00;;
39362;SDS011;25088;43.238;23.110;2023-02-22T14:56:21;0.00;;;0.00;;
39362;SDS011;25088;43.238;23.110;2023-02-22T15:01:34;0.00;;;0.00;;
39362;SDS011;25088;43.238;23.110;2023-02-22T15:06:53;0.00;;;0.00;;
39362;SDS011;25088;43.238;23.110;2023-02-22T15:09:24;0.00;;;0.00;;
39362;SDS011;25088;43.238;23.110;2023-02-22T15:14:29;0.00;;;0.00;;
39362;SDS011;25088;43.238;23.110;2023-02-22T15:17:02;0.00;;;0.00;;
39362;SDS011;25088;43.238;23.110;2023-02-22T15:19:32;0.00;;;0.00;;
39362;SDS011;25088;43.238;23.110;2023-02-22T15:22:02;0.00;;;0.00;;
39362;SDS011;25088;43.238;23.110;2023-02-22T15:24:33;0.00;;;0.00;;
39362;SDS011;25088;43.238;23.110;2023-02-22T15:27:11;0.00;;;0.00;;
39362;SDS011;25088;43.238;23.110;2023-02-22T15:29:41;0.00;;;0.00;;
39362;SDS011;25088;43.238;23.110;2023-02-22T15:37:44;0.00;;;0.00;;
39362;SDS011;25088;43.238;23.110;2023-02-22T15:40:12;0.00;;;0.00;;
39362;SDS011;25088;43.238;23.110;2023-02-22T15:42:49;0.00;;;0.00;;
39362;SDS011;25088;43.238;23.110;2023-02-22T15:47:44;0.00;;;0.00;;
39362;SDS011;25088;43.238;23.110;2023-02-22T15:55:31;0.00;;;0.00;;
39362;SDS011;25088;43.238;23.110;2023-02-22T15:58:11;0.00;;;0.00;;
39362;SDS011;25088;43.238;23.110;2023-02-22T16:00:50;0.00;;;0.00;;
39362;SDS011;25088;43.238;23.110;2023-02-22T16:03:48;0.00;;;0.00;;
39362;SDS011;25088;43.238;23.110;2023-02-22T16:06:26;0.00;;;0.00;;
39362;SDS011;25088;43.238;23.110;2023-02-22T16:08:57;0.00;;;0.00;;
39362;SDS011;25088;43.238;23.110;2023-02-22T16:11:29;0.00;;;0.00;;
39362;SDS011;25088;43.238;23.110;2023-02-22T16:14:03;0.00;;;0.00;;
39362;SDS011;25088;43.238;23.110;2023-02-22T16:22:05;0.00;;;0.00;;
39362;SDS011;25088;43.238;23.110;2023-02-22T16:24:37;0.00;;;0.00;;
39362;SDS011;25088;43.238;23.110;2023-02-22T16:29:35;0.00;;;0.00;;
39362;SDS011;25088;43.238;23.110;2023-02-22T16:32:00;0.00;;;0.00;;
39362;SDS011;25088;43.238;23.110;2023-02-22T16:34:26;0.00;;;0.00;;
39362;SDS011;25088;43.238;23.110;2023-02-22T16:36:51;0.00;;;0.00;;
39362;SDS011;25088;43.238;23.110;2023-02-22T16:41:53;0.10;;;0.10;;
39362;SDS011;25088;43.238;23.110;2023-02-22T16:44:20;0.10;;;0.10;;
39362;SDS011;25088;43.238;23.110;2023-02-22T16:46:49;0.10;;;0.10;;
39362;SDS011;25088;43.238;23.110;2023-02-22T16:49:22;0.00;;;0.00;;
39362;SDS011;25088;43.238;23.110;2023-02-22T16:51:52;0.10;;;0.10;;
39362;SDS011;25088;43.238;23.110;2023-02-22T16:54:24;0.10;;;0.10;;
39362;SDS011;25088;43.238;23.110;2023-02-22T16:56:54;0.10;;;0.10;;
39362;SDS011;25088;43.238;23.110;2023-02-22T16:59:21;0.10;;;0.10;;
39362;SDS011;25088;43.238;23.110;2023-02-22T17:01:47;0.10;;;0.10;;
39362;SDS011;25088;43.238;23.110;2023-02-22T17:04:14;0.10;;;0.10;;
39362;SDS011;25088;43.238;23.110;2023-02-22T17:06:42;0.10;;;0.10;;
39362;SDS011;25088;43.238;23.110;2023-02-22T17:09:07;0.10;;;0.10;;
39362;SDS011;25088;43.238;23.110;2023-02-22T17:11:33;0.10;;;0.10;;
39362;SDS011;25088;43.238;23.110;2023-02-22T17:14:00;0.10;;;0.10;;
39362;SDS011;25088;43.238;23.110;2023-02-22T17:16:26;0.10;;;0.10;;
39362;SDS011;25088;43.238;23.110;2023-02-22T17:18:51;0.10;;;0.10;;
39362;SDS011;25088;43.238;23.110;2023-02-22T17:21:16;0.13;;;0.13;;
39362;SDS011;25088;43.238;23.110;2023-02-22T17:23:42;0.10;;;0.10;;
39362;SDS011;25088;43.238;23.110;2023-02-22T17:26:11;0.10;;;0.10;;
39362;SDS011;25088;43.238;23.110;2023-02-22T17:28:37;0.10;;;0.10;;
39362;SDS011;25088;43.238;23.110;2023-02-22T17:31:04;0.10;;;0.10;;
39362;SDS011;25088;43.238;23.110;2023-02-22T17:33:31;0.10;;;0.10;;
39362;SDS011;25088;43.238;23.110;2023-02-22T17:35:59;0.10;;;0.10;;
39362;SDS011;25088;43.238;23.110;2023-02-22T17:38:26;0.10;;;0.10;;
39362;SDS011;25088;43.238;23.110;2023-02-22T17:40:54;0.10;;;0.10;;
39362;SDS011;25088;43.238;23.110;2023-02-22T17:43:21;0.10;;;0.10;;
39362;SDS011;25088;43.238;23.110;2023-02-22T17:45:46;0.10;;;0.10;;
39362;SDS011;25088;43.238;23.110;2023-02-22T17:48:13;0.10;;;0.10;;
39362;SDS011;25088;43.238;23.110;2023-02-22T17:50:40;0.10;;;0.10;;
39362;SDS011;25088;43.238;23.110;2023-02-22T17:53:06;0.10;;;0.10;;
39362;SDS011;25088;43.238;23.110;2023-02-22T17:55:35;0.10;;;0.10;;
39362;SDS011;25088;43.238;23.110;2023-02-22T17:58:03;0.15;;;0.15;;
39362;SDS011;25088;43.238;23.110;2023-02-22T18:00:30;0.10;;;0.10;;
39362;SDS011;25088;43.238;23.110;2023-02-22T18:03:05;0.10;;;0.10;;
39362;SDS011;25088;43.238;23.110;2023-02-22T18:05:32;0.10;;;0.10;;